Flight Track Log - Related Links

Times and Time Zones

All times are in EST time to prevent confusion due to time zone crossing. See the OPT438 flight status page for this flight to view local times or setup timezone preferences in your user account.

Time Position Orientation Groundspeed Altitude Reporting Facility
EST Latitude Longitude Course Direction KTS MPH feet Rate Location/Type
Mon 04:12:41 PM 27.1464 -80.1339 13° North 199 229 3,000  Level Miami Center
Mon 04:13:41 PM 27.1100 -80.1725 223° Southwest 134 154 4,700 1,200 Climbing Miami Center
Mon 04:14:41 PM 27.1336 -80.2339 293° West 97 112 5,400 1,350 Climbing Miami Center
Mon 04:15:41 PM 27.1786 -80.2772 319° Northwest 185 213 7,400 2,200 Climbing Miami Center
Mon 04:16:41 PM 27.2408 -80.3000 342° North 208 239 9,800 2,550 Climbing Miami Center
Mon 04:17:00 PM 27.3523 -80.5703 13° North  Level FlightAware Approximate
Mon 04:17:41 PM 27.3131 -80.3328 338° Northwest 243 280 12,500  Level Miami Center
Mon 04:18:41 PM 27.3900 -80.3444 352° North 260 299 14,100 1,550 Climbing Miami Center
Mon 04:19:41 PM 27.4781 -80.3306 North 293 337 15,600 1,650 Climbing Miami Center
Mon 04:20:41 PM 27.5619 -80.3122 11° North 327 376 17,400 1,650 Climbing Miami Center
Mon 04:21:41 PM 27.6494 -80.2328 39° Northeast 339 390 18,900 850 Climbing Miami Center
Mon 04:22:41 PM 27.7328 -80.1531 40° Northeast 358 412 19,100 650 Climbing Miami Center
Mon 04:23:41 PM 27.8242 -80.0711 38° Northeast 386 444 20,200 1,100 Climbing Miami Center
Mon 04:24:41 PM 27.9053 -79.9958 39° Northeast 412 474 21,300 1,150 Climbing Miami Center
Mon 04:25:41 PM 27.9969 -79.9114 39° Northeast 420 483 22,500 1,450 Climbing Miami Center
Mon 04:26:41 PM 28.1089 -79.8486 26° Northeast 406 467 24,200 1,650 Climbing Miami Center
Mon 04:27:41 PM 28.2161 -79.8136 16° North 401 461 25,800 1,600 Climbing Miami Center
Mon 04:28:41 PM 28.3253 -79.7742 18° North 401 461 27,400 1,450 Climbing Miami Center
Mon 04:29:41 PM 28.4306 -79.7367 17° North 396 456 28,700 1,150 Climbing Miami Center
Mon 04:30:41 PM 28.5397 -79.6992 17° North 401 461 29,700 1,000 Climbing Miami Center
Mon 04:31:41 PM 28.6511 -79.6594 17° North 407 468 30,700 1,000 Climbing Miami Center
Mon 04:32:41 PM 28.7644 -79.6222 16° North 414 476 31,700 1,000 Climbing Miami Center
Mon 04:33:41 PM 28.8800 -79.5825 17° North 419 482 32,700 1,000 Climbing Miami Center
Mon 04:34:41 PM 28.9975 -79.5450 16° North 425 489 33,700 1,000 Climbing Miami Center
Mon 04:35:41 PM 29.1131 -79.5028 18° North 425 489 34,700 1,000 Climbing Miami Center
Mon 04:36:41 PM 29.2347 -79.4675 14° North 425 489 35,700 900 Climbing Miami Center
Mon 04:37:41 PM 29.3439 -79.4225 20° North 420 483 36,500 700 Climbing Miami Center
Mon 04:38:41 PM 29.4553 -79.3775 19° North 420 483 37,100 550 Climbing Miami Center
Mon 04:39:41 PM 29.5686 -79.3372 17° North 425 489 37,600 500 Climbing Miami Center
Mon 04:40:41 PM 29.6883 -79.2969 16° North 425 489 38,100 500 Climbing Miami Center
Mon 04:41:41 PM 29.7994 -79.2539 19° North 425 489 38,600 278 Climbing Miami Center
Mon 04:43:55 PM 30.0636 -79.1608 17° North 432 497 39,000 124 Climbing Jacksonville Center
Mon 04:44:55 PM 30.1836 -79.1203 16° North 437 503 39,000  Level Jacksonville Center
Mon 04:45:55 PM 30.2969 -79.0725 20° North 437 503 39,000  Level Jacksonville Center
Mon 04:46:55 PM 30.4231 -79.0289 17° North 444 511 39,000  Level Jacksonville Center
Mon 04:47:55 PM 30.5447 -78.9828 18° North 455 524 39,000  Level Jacksonville Center
Mon 04:48:55 PM 30.6686 -78.9392 17° North 460 529 39,000  Level Jacksonville Center
Mon 04:49:55 PM 30.7986 -78.8925 17° North 468 539 39,000  Level Jacksonville Center
Mon 04:50:55 PM 30.9244 -78.8461 18° North 474 545 39,000  Level Jacksonville Center
Mon 04:51:55 PM 31.0361 -78.8075 17° North 470 541 39,000  Level Jacksonville Center
Mon 04:52:55 PM 31.1617 -78.7558 19° North 470 541 39,000  Level Jacksonville Center
Mon 04:53:55 PM 31.2856 -78.7139 16° North 465 535 39,000  Level Jacksonville Center
Mon 04:54:55 PM 31.4053 -78.6722 17° North 459 528 39,000  Level Jacksonville Center
Mon 04:55:55 PM 31.5331 -78.6200 19° North 459 528 39,000  Level Jacksonville Center
Mon 04:56:55 PM 31.6525 -78.5778 17° North 454 522 39,000  Level Jacksonville Center
Mon 04:57:55 PM 31.7742 -78.5306 18° North 454 522 39,000  Level Jacksonville Center
Mon 04:58:55 PM 31.8939 -78.4883 17° North 454 522 39,000  Level Jacksonville Center
Mon 04:59:55 PM 32.0153 -78.4408 18° North 454 522 39,000  Level Jacksonville Center
Mon 05:00:55 PM 32.1367 -78.3958 17° North 454 522 39,000 150 Level Jacksonville Center
Mon 05:01:55 PM 32.2542 -78.3506 18° North 454 522 39,300 403 Climbing Jacksonville Center
Mon 05:02:54 PM 32.3881 -78.2997 18° North 454 522 39,800 500 Climbing Jacksonville Center
Mon 05:03:55 PM 32.5031 -78.2519 19° North 449 517 40,300 496 Climbing Jacksonville Center
Mon 05:04:55 PM 32.6206 -78.2114 16° North 439 505 40,800 350 Climbing Jacksonville Center
Mon 05:05:55 PM 32.7317 -78.1686 18° North 427 491 41,000 100 Climbing Jacksonville Center
Mon 05:06:55 PM 32.8489 -78.1206 19° North 427 491 41,000  Level Jacksonville Center
Mon 05:07:55 PM 32.9642 -78.0797 17° North 427 491 41,000  Level Jacksonville Center
Mon 05:08:55 PM 33.0814 -78.0339 18° North 433 498 41,000  Level Jacksonville Center
Mon 05:09:55 PM 33.2028 -77.9875 18° North 433 498 41,000  Level Jacksonville Center
Mon 05:11:52 PM 33.4361 -77.8983 18° North 429 494 41,000  Level Washington Center
Mon 05:12:53 PM 33.5581 -77.8494 18° North 440 506 41,000  Level Washington Center
Mon 05:13:51 PM 33.6778 -77.8028 18° North 446 513 41,000  Level Washington Center
Mon 05:14:51 PM 33.8019 -77.7536 18° North 446 513 41,000  Level Washington Center
Mon 05:15:52 PM 33.9239 -77.6967 21° North 457 526 41,000  Level Washington Center
Mon 05:16:52 PM 34.0458 -77.6372 22° Northeast 463 533 41,000  Level Washington Center
Mon 05:17:53 PM 34.1636 -77.5772 23° Northeast 457 526 41,000  Level Washington Center
Mon 05:18:53 PM 34.2711 -77.5244 22° Northeast 457 526 41,000  Level Washington Center
Mon 05:19:51 PM 34.3889 -77.4619 24° Northeast 457 526 41,000  Level Washington Center
Mon 05:20:52 PM 34.5044 -77.4042 22° Northeast 457 526 41,000 -50 Level Washington Center
Mon 05:21:52 PM 34.6203 -77.3411 24° Northeast 457 526 40,900 -545 Descending Washington Center
Mon 05:22:53 PM 34.7358 -77.2828 23° Northeast 452 520 39,900 -1,059 Descending Washington Center
Mon 05:23:51 PM 34.8597 -77.2119 25° Northeast 452 520 38,800 -1,068 Descending Washington Center
Mon 05:24:51 PM 34.9775 -77.1536 22° Northeast 446 513 37,800 -942 Descending Washington Center
Mon 05:25:52 PM 35.0844 -77.0997 22° Northeast 446 513 36,900 -397 Descending Washington Center
Mon 05:26:52 PM 35.2086 -77.0308 24° Northeast 446 513 37,000 -99 Climbing Washington Center
Mon 05:27:53 PM 35.3281 -76.9669 24° Northeast 446 513 36,700 -645 Descending Washington Center
Mon 05:28:53 PM 35.4458 -76.9050 23° Northeast 446 513 35,700 -1,050 Descending Washington Center
Mon 05:29:53 PM 35.5653 -76.8433 23° Northeast 451 519 34,600 -1,119 Descending Washington Center
Mon 05:30:51 PM 35.6764 -76.7811 24° Northeast 451 519 33,500 -807 Descending Washington Center
Mon 05:31:52 PM 35.7856 -76.7211 24° Northeast 439 505 33,000 -248 Descending Washington Center
Mon 05:32:52 PM 35.8947 -76.6639 23° Northeast 429 494 33,000  Level Washington Center
Mon 05:33:53 PM 36.0058 -76.6036 24° Northeast 423 487 33,000 -50 Level Washington Center
Mon 05:34:53 PM 36.1167 -76.5433 24° Northeast 423 487 32,900 -610 Descending Washington Center
Mon 05:35:51 PM 36.2300 -76.4856 22° Northeast 428 493 31,800 -1,059 Descending Washington Center
Mon 05:36:52 PM 36.3431 -76.4222 24° Northeast 434 499 30,800 -1,033 Descending Washington Center
Mon 05:37:53 PM 36.4581 -76.3614 23° Northeast 441 507 29,700 -908 Descending Washington Center
Mon 05:38:51 PM 36.5733 -76.2981 24° Northeast 441 507 29,000 -356 Descending Washington Center
Mon 05:39:51 PM 36.6842 -76.2394 23° Northeast 441 507 29,000  Level Washington Center
Mon 05:40:52 PM 36.7992 -76.1703 26° Northeast 441 507 29,000  Level Washington Center
Mon 05:41:53 PM 36.9122 -76.1089 23° Northeast 441 507 29,000  Level Washington Center
Mon 05:42:51 PM 37.0272 -76.0472 23° Northeast 441 507 29,000 -50 Level Washington Center
Mon 05:43:52 PM 37.1400 -75.9878 23° Northeast 441 507 28,900  Descending Washington Center
Mon 05:44:53 PM 37.2528 -75.9233 24° Northeast 441 507 29,000 -397 Climbing Washington Center
Mon 05:45:53 PM 37.3700 -75.8583 24° Northeast 441 507 28,100 -966 Descending Washington Center
Mon 05:46:51 PM 37.4806 -75.7961 24° Northeast 436 502 27,100 -1,008 Descending Washington Center
Mon 05:47:52 PM 37.5892 -75.7333 25° Northeast 436 502 26,100 -885 Descending Washington Center
Mon 05:48:53 PM 37.6767 -75.6836 24° Northeast 430 495 25,300 -555 Descending Washington Center
Mon 05:49:51 PM 37.7914 -75.6206 23° Northeast 437 503 25,000 -807 Descending Washington Center
Mon 05:50:52 PM 37.9228 -75.5444 25° Northeast 437 503 23,700 -1,082 Descending Washington Center
Mon 05:51:53 PM 38.0208 -75.4942 22° Northeast 437 503 22,800 -1,210 Descending Washington Center
Mon 05:52:51 PM 38.1250 -75.4228 28° Northeast 432 497 21,300 -1,780 Descending Washington Center
Mon 05:53:51 PM 38.2250 -75.3617 26° Northeast 411 473 19,300 -2,115 Descending Washington Center
Mon 05:54:53 PM 38.3333 -75.2900 27° Northeast 396 456 17,000 -2,115 Descending Washington Center
Mon 05:55:53 PM 38.4269 -75.2339 25° Northeast 384 442 15,000 -2,034 Descending Washington Center
Mon 05:56:51 PM 38.5164 -75.1778 26° Northeast 372 428 13,000 -1,866 Descending Washington Center
Mon 05:57:52 PM 38.5997 -75.1242 27° Northeast 346 398 11,300 -984 Descending Washington Center
Mon 05:58:53 PM 38.6892 -75.0678 26° Northeast 339 390 11,000 -149 Descending Washington Center
Mon 05:59:53 PM 38.7742 -75.0086 28° Northeast 339 390 11,000 -50 Level Washington Center
Mon 06:00:52 PM 38.8594 -74.9572 25° Northeast 344 396 10,900 -605 Descending Washington Center
Mon 06:01:52 PM 38.9322 -74.9086 27° Northeast 325 374 9,800 -1,041 Descending Washington Center
Mon 06:02:53 PM 39.0006 -74.8625 28° Northeast 292 336 8,800 -1,059 Descending Washington Center
Mon 06:03:51 PM 39.0711 -74.8189 26° Northeast 278 320 7,700 -908 Descending Washington Center
Mon 06:04:52 PM 39.1333 -74.7622 35° Northeast 273 314 7,000 -344 Descending Washington Center
Mon 06:05:53 PM 39.1933 -74.6997 39° Northeast 273 314 7,000  Level Washington Center
Mon 06:06:54 PM 39.2511 -74.6347 41° Northeast 273 314 7,000  Level Washington Center
Mon 06:07:52 PM 39.3111 -74.5694 40° Northeast 273 314 7,000  Level Washington Center
Mon 06:08:53 PM 39.3689 -74.5069 40° Northeast 278 320 7,000  Level Washington Center
Mon 06:09:53 PM 39.4267 -74.4444 40° Northeast 278 320 7,000 -102 Level Washington Center
Mon 06:10:51 PM 39.4844 -74.3789 41° Northeast 278 320 6,800 -207 Descending Washington Center
Mon 06:12:00 PM 39.5749 -74.2585 38° Northeast  Level FlightAware Approximate
Mon 06:19:00 PM 40.1833 -74.1167 330° Northwest  Level FlightAware Approximate
Mon 06:20:00 PM 40.1867 -74.1246 330° Northwest  Level Estimated
Mon 06:21:00 PM 40.1833 -74.1167 330° Northwest  Level FlightAware Approximate
Mon 06:22:00 PM 40.1867 -74.1246 330° Northwest  Level Estimated
Mon 06:23:00 PM 40.1833 -74.1167 330° Northwest  Level FlightAware Approximate
Mon 06:24:00 PM 40.1867 -74.1246 330° Northwest  Level Estimated
Mon 06:25:00 PM 40.1833 -74.1167 330° Northwest  Level FlightAware Approximate
Mon 06:26:00 PM 40.1867 -74.1246 330° Northwest  Level Estimated
Mon 06:27:00 PM 40.1833 -74.1167 330° Northwest  Level FlightAware Approximate
Mon 06:28:00 PM 40.1867 -74.1246 330° Northwest  Level Estimated
Mon 06:29:00 PM 40.1833 -74.1167 330° Northwest  Level FlightAware Approximate
Mon 06:30:00 PM 40.1867 -74.1246 330° Northwest  Level Estimated
Mon 06:31:00 PM 40.1833 -74.1167 330° Northwest  Level FlightAware Approximate
Mon 06:32:00 PM 40.1867 -74.1246 330° Northwest  Level Estimated
Mon 06:33:00 PM 40.1833 -74.1167 330° Northwest  Level FlightAware Approximate
Mon 06:34:00 PM 40.1867 -74.1246 330° Northwest  Level Estimated

Login

Don't have an account? Register now (free) for customized features, flight alerts, and more!